Bei Facebook empfehlenBei Twitter postenGoogle plusPinterest

Das Wetter im Erzgebirge am 31.08.2016

Wetter und Klima am 31.08.2016 Holzhau im Erzgebirge (630m ü.NN)
Letzte gemessene Temperatur und Uhrzeit der Messung23:45:00 Uhr9.80 °C
Temperatur (Maximum / Höchstwert) und Uhrzeit der Messung16:15:00 Uhr23.10 °C
Temperatur (Minimum / Tiefstwert) und Uhrzeit der Messung05:00:005.10 °C
Errechneter Absolutwert der Temperaturschwankungen zwischen Tmin und Tmax des Tages18.00 K
Errechnete Tagesmitteltemperatur13.79688 °C
Gesamt - Niederschlag des Tages (in flüssiger Form)0.00 Liter / m²
Luftdruck (Maximum / Höchstwert) und Zeitpunkt der Messung00:30:00 Uhr1023.00 hPa
Luftdruck (Minimum / Tiefstwert) und Zeitpunkt der Messung22:45:00 Uhr1018.80 hPa
Errechneter Absolutwert der Luftdruckschwankungen des Tages4.20 hPa
Höchste gemessene Windgeschwindigkeit und Uhrzeit der Messung23:45:00 Uhr0.00 km/h
Errechnete Windhäufigkeit in Relation zu den Messwerten des Tages0.00000 %
Niedrigste Windkühle (Windchill) und Zeitpunkt der Messung05:00:00 Uhr5.10 °C
Taupunkt (Maximum / Höchstwert) und Uhrzeit der Messung13:45:00 Uhr11.30 °C
Taupunkt (Minimum / Tiefstwert) und Uhrzeit der Messung03:45:003.40 °C
Anzahl der automatisch eingelesenen Messwerte 96

Detaillierte Wetter- und Klima- Messwerte für den 31.08.2016 in Holzhau im Erzgebirge (630m ü.NN)
ZeitTemperaturLuftdruckRel. LuftfeuchteWindWindrichtungWindchillTaupunktNiederschlag l/m²
23:45:009.80 °C1019.20 hPa79.00 %6.30 °C 
23:30:009.80 °C1019.20 hPa78.00 %6.20 °C 
23:15:009.70 °C1019.00 hPa78.00 %6.10 °C 
23:00:0010.00 °C1018.90 hPa76.00 %6.00 °C 
22:45:0010.80 °C1018.80 hPa75.00 %6.60 °C 
22:30:0011.00 °C1019.00 hPa75.00 %6.70 °C 
22:15:0011.10 °C1019.00 hPa74.00 %6.60 °C 
22:00:0011.30 °C1018.90 hPa73.00 %6.60 °C 
21:45:0011.60 °C1018.90 hPa73.00 %6.90 °C 
21:30:0011.80 °C1019.00 hPa72.00 %6.90 °C 
21:15:0012.00 °C1018.90 hPa71.00 %6.90 °C 
21:00:0012.20 °C1019.00 hPa70.00 %6.90 °C 
20:45:0012.60 °C1018.90 hPa69.00 %7.10 °C 
20:30:0012.90 °C1018.90 hPa66.00 %6.70 °C 
20:15:0013.60 °C1019.00 hPa63.00 %6.70 °C 
20:00:0014.60 °C1019.00 hPa60.00 %6.90 °C 
19:45:0016.10 °C1019.00 hPa57.00 %7.60 °C 
19:30:0017.50 °C1018.80 hPa54.00 %8.10 °C 
19:15:0018.70 °C1018.80 hPa51.00 %8.40 °C 
19:00:0019.60 °C1019.00 hPa49.00 %8.60 °C 
18:45:0020.40 °C1019.00 hPa48.00 %9.00 °C 
18:30:0020.90 °C1019.30 hPa47.00 %9.20 °C 
18:15:0021.40 °C1019.20 hPa46.00 %9.30 °C 
18:00:0022.10 °C1019.20 hPa46.00 %9.90 °C 
17:45:0022.40 °C1019.40 hPa44.00 %9.60 °C 
17:30:0022.90 °C1019.50 hPa45.00 %10.30 °C 
17:15:0022.90 °C1019.60 hPa45.00 %10.30 °C 
17:00:0022.80 °C1019.60 hPa44.00 %9.90 °C 
16:45:0022.70 °C1019.50 hPa45.00 %10.20 °C 
16:30:0023.00 °C1019.60 hPa44.00 %10.10 °C 
16:15:0023.10 °C1019.70 hPa45.00 %10.50 °C 
16:00:0022.90 °C1019.90 hPa45.00 %10.30 °C 
15:45:0022.90 °C1019.80 hPa46.00 %10.70 °C 
15:30:0022.80 °C1020.00 hPa46.00 %10.60 °C 
15:15:0022.50 °C1019.90 hPa46.00 %10.30 °C 
15:00:0022.60 °C1020.20 hPa46.00 %10.40 °C 
14:45:0022.30 °C1020.40 hPa47.00 %10.50 °C 
14:30:0022.40 °C1020.40 hPa48.00 %10.90 °C 
14:15:0022.20 °C1020.50 hPa49.00 %11.00 °C 
14:00:0021.90 °C1020.70 hPa49.00 %10.70 °C 
13:45:0021.90 °C1020.50 hPa51.00 %11.30 °C 
13:30:0021.30 °C1020.70 hPa52.00 %11.10 °C 
13:15:0020.90 °C1020.70 hPa53.00 %11.00 °C 
13:00:0020.70 °C1021.10 hPa53.00 %10.80 °C 
12:45:0020.40 °C1021.00 hPa54.00 %10.80 °C 
12:30:0020.00 °C1020.80 hPa54.00 %10.40 °C 
12:15:0019.50 °C1021.10 hPa56.00 %10.50 °C 
12:00:0019.20 °C1021.10 hPa56.00 %10.20 °C 
11:45:0019.20 °C1021.00 hPa57.00 %10.50 °C 
11:30:0018.90 °C1021.10 hPa58.00 %10.50 °C 
11:15:0018.90 °C1021.20 hPa60.00 %11.00 °C 
11:00:0018.30 °C1021.10 hPa61.00 %10.70 °C 
10:45:0017.60 °C1021.10 hPa64.00 %10.70 °C 
10:30:0017.20 °C1021.10 hPa65.00 %10.60 °C 
10:15:0016.60 °C1020.90 hPa67.00 %10.50 °C 
10:00:0016.10 °C1020.80 hPa68.00 %10.20 °C 
09:45:0015.70 °C1020.90 hPa69.00 %10.00 °C 
09:30:0015.50 °C1020.90 hPa70.00 %10.10 °C 
09:15:0014.90 °C1020.80 hPa73.00 %10.10 °C 
09:00:0014.80 °C1020.80 hPa77.00 %10.80 °C 
08:45:0014.10 °C1021.00 hPa81.00 %10.90 °C 
08:30:0013.30 °C1021.10 hPa83.00 %10.50 °C 
08:15:0012.60 °C1021.20 hPa86.00 %10.30 °C 
08:00:0011.90 °C1021.20 hPa88.00 %10.00 °C 
07:45:0010.80 °C1021.30 hPa89.00 %9.10 °C 
07:30:009.80 °C1021.30 hPa90.00 %8.20 °C 
07:15:009.40 °C1021.20 hPa90.00 %7.80 °C 
07:00:008.80 °C1021.20 hPa91.00 %7.40 °C 
06:45:008.30 °C1021.20 hPa91.00 %6.90 °C 
06:30:007.80 °C1021.20 hPa91.00 %6.40 °C 
06:15:007.20 °C1021.30 hPa91.00 %5.80 °C 
06:00:006.30 °C1021.30 hPa91.00 %4.90 °C 
05:45:005.80 °C1021.50 hPa91.00 %4.40 °C 
05:30:005.30 °C1021.50 hPa91.00 %4.00 °C 
05:15:005.20 °C1021.70 hPa91.00 %3.90 °C 
05:00:005.10 °C1021.80 hPa90.00 %3.60 °C 
04:45:005.10 °C1021.80 hPa90.00 %3.60 °C 
04:30:005.10 °C1022.10 hPa90.00 %3.60 °C 
04:15:005.20 °C1022.00 hPa90.00 %3.70 °C 
04:00:005.20 °C1022.10 hPa90.00 %3.70 °C 
03:45:005.10 °C1022.10 hPa89.00 %3.40 °C 
03:30:005.10 °C1022.10 hPa89.00 %3.40 °C 
03:15:005.10 °C1022.10 hPa89.00 %3.40 °C 
03:00:005.30 °C1022.20 hPa89.00 %3.60 °C 
02:45:005.30 °C1022.40 hPa89.00 %3.60 °C 
02:30:005.30 °C1022.60 hPa89.00 %3.60 °C 
02:15:005.40 °C1022.80 hPa88.00 %3.60 °C 
02:00:005.50 °C1022.70 hPa88.00 %3.70 °C 
01:45:005.60 °C1022.70 hPa88.00 %3.80 °C 
01:30:005.80 °C1022.80 hPa87.00 %3.80 °C 
01:15:005.90 °C1022.80 hPa87.00 %3.90 °C 
01:00:006.10 °C1022.90 hPa87.00 %4.10 °C 
00:45:006.10 °C1022.90 hPa86.00 %3.90 °C 
00:30:006.20 °C1023.00 hPa85.00 %3.90 °C 
00:15:006.40 °C1022.90 hPa85.00 %4.10 °C 
00:00:006.60 °C1022.90 hPa85.00 %4.30 °C 

Permanenter Link zu dieser Seite: Wetter im Erzgebirge am 31.08.2016
Performance-Info: Die Erstellung der Seite / Statistik(en) / Tabelle(n) erforderte 5 Datenbankserver-Abfrage(n) und dauerte 124 Millisekunden. (Dieser Messwert ist von der Gesamt-Auslastung des Servers abhängig.)
Erzgebirge - Wetter | Erzgebirge - Wetter (Mobilgeräte) | Komplette Klimadatenbank